Time;durP1;ratioP1;P1;durP2;ratioP2;P2;SDS_P1;SDS_P2;PMS_P1;PMS_P2;Temp;Humidity;BMP_temperature;BMP_pressure;BME280_temperature;BME280_humidity;BME280_pressure;Samples;Min_cycle;Max_cycle;Signal;HPM_P1;HPM_P2
2022/04/11 00:00:27;;;;;;;12.43;5.73;;;;;;;-0.37;100.00;96610.06;5030479;28;20103;-75
2022/04/11 00:02:53;;;;;;;11.63;6.43;;;;;;;-0.37;100.00;96616.94;5010340;28;20501;-76
2022/04/11 00:05:19;;;;;;;12.60;5.80;;;;;;;-0.44;100.00;96607.88;5047894;28;20580;-75
2022/04/11 00:07:44;;;;;;;9.10;6.40;;;;;;;-0.55;100.00;96606.69;5045589;28;20503;-76
2022/04/11 00:10:10;;;;;;;9.40;5.57;;;;;;;-0.48;100.00;96605.44;5046892;28;20036;-76
2022/04/11 00:12:37;;;;;;;9.90;5.00;;;;;;;-0.53;100.00;96596.28;5044976;28;20029;-76
2022/04/11 00:15:07;;;;;;;11.10;5.33;;;;;;;-0.59;100.00;96600.03;5045208;28;20024;-75
2022/04/11 00:17:33;;;;;;;8.80;5.33;;;;;;;-0.59;100.00;96599.19;5044752;28;21019;-76
2022/04/11 00:19:59;;;;;;;12.20;5.87;;;;;;;-0.59;100.00;96588.88;5027535;28;20570;-76
2022/04/11 00:22:25;;;;;;;11.67;5.83;;;;;;;-0.65;100.00;96584.03;5047414;28;21253;-76
2022/04/11 00:24:51;;;;;;;8.90;4.70;;;;;;;-0.68;100.00;96582.44;5026437;28;20029;-76
2022/04/11 00:27:18;;;;;;;12.07;5.83;;;;;;;-0.67;100.00;96581.53;5012164;28;20041;-76
2022/04/11 00:29:45;;;;;;;10.33;5.00;;;;;;;-0.77;100.00;96586.34;5023658;28;20484;-75
2022/04/11 00:32:11;;;;;;;11.20;5.40;;;;;;;-0.72;100.00;96584.34;5028485;28;20526;-76
2022/04/11 00:34:37;;;;;;;12.83;5.80;;;;;;;-0.80;100.00;96586.50;5021269;28;20943;-75
2022/04/11 00:37:03;;;;;;;13.87;6.40;;;;;;;-0.84;100.00;96584.16;5026948;28;20443;-76
2022/04/11 00:39:29;;;;;;;9.73;6.03;;;;;;;-0.82;100.00;96582.34;5025597;28;20494;-76
2022/04/11 00:41:55;;;;;;;9.43;5.67;;;;;;;-0.84;100.00;96579.84;5010839;28;20044;-76
2022/04/11 00:44:21;;;;;;;10.77;5.63;;;;;;;-0.87;100.00;96574.84;5028279;28;20043;-76
2022/04/11 00:46:46;;;;;;;9.73;6.07;;;;;;;-0.96;100.00;96585.66;5026009;28;20029;-74
2022/04/11 00:49:12;;;;;;;12.87;5.53;;;;;;;-1.00;100.00;96576.41;5027320;28;20401;-75
2022/04/11 00:51:39;;;;;;;9.03;5.60;;;;;;;-1.00;100.00;96582.41;5023421;28;20044;-75
2022/04/11 00:54:07;;;;;;;11.83;5.63;;;;;;;-0.99;100.00;96586.63;5026630;28;20039;-76
2022/04/11 00:56:38;;;;;;;14.07;5.93;;;;;;;-1.06;100.00;96584.47;5029201;28;20534;-75
2022/04/11 00:59:04;;;;;;;10.57;6.37;;;;;;;-1.15;100.00;96588.34;5009399;28;20471;-76
2022/04/11 01:01:29;;;;;;;11.57;6.37;;;;;;;-1.11;100.00;96579.50;5027269;28;20493;-75
2022/04/11 01:03:57;;;;;;;9.33;6.17;;;;;;;-1.15;100.00;96587.50;5026608;28;20133;-76
2022/04/11 01:06:23;;;;;;;15.07;8.23;;;;;;;-1.22;100.00;96585.22;5012435;28;20035;-75
2022/04/11 01:08:48;;;;;;;11.73;6.20;;;;;;;-1.19;100.00;96579.91;5042711;28;20479;-76
2022/04/11 01:11:14;;;;;;;9.37;5.53;;;;;;;-1.17;100.00;96579.84;5026291;28;20382;-75
2022/04/11 01:13:43;;;;;;;10.37;6.30;;;;;;;-1.25;100.00;96569.91;5046110;28;20521;-75
2022/04/11 01:16:09;;;;;;;10.23;5.70;;;;;;;-1.22;100.00;96574.91;5045392;28;20530;-75
2022/04/11 01:18:37;;;;;;;9.97;6.20;;;;;;;-1.30;100.00;96571.06;5028936;28;20621;-77
2022/04/11 01:21:05;;;;;;;9.50;5.83;;;;;;;-1.26;100.00;96570.81;5023706;28;20469;-75
2022/04/11 01:23:31;;;;;;;10.17;6.17;;;;;;;-1.21;100.00;96565.41;5011891;28;20455;-76
2022/04/11 01:25:57;;;;;;;11.73;6.20;;;;;;;-1.19;100.00;96563.59;5022701;28;20463;-76
2022/04/11 01:28:23;;;;;;;12.23;7.03;;;;;;;-1.16;100.00;96560.03;5012438;28;20094;-75
2022/04/11 01:30:55;;;;;;;13.17;6.60;;;;;;;-1.15;100.00;96567.69;5023448;28;20875;-75
2022/04/11 01:33:29;;;;;;;12.67;6.67;;;;;;;-1.14;100.00;96560.78;5012605;28;20455;-76
2022/04/11 01:35:59;;;;;;;11.37;6.30;;;;;;;-1.10;100.00;96555.41;5021309;28;20459;-75
2022/04/11 01:38:25;;;;;;;11.50;7.07;;;;;;;-1.06;100.00;96559.47;5026001;28;20469;-75
2022/04/11 01:40:53;;;;;;;10.47;6.37;;;;;;;-1.06;100.00;96550.91;5028269;28;20451;-75
2022/04/11 01:43:21;;;;;;;9.37;5.83;;;;;;;-1.06;100.00;96544.00;5011365;28;20033;-75
2022/04/11 01:45:47;;;;;;;11.03;6.43;;;;;;;-1.10;100.00;96544.25;5026407;28;20459;-75
2022/04/11 01:48:15;;;;;;;16.17;8.17;;;;;;;-1.13;100.00;96541.81;5028345;28;20463;-75
2022/04/11 01:50:42;;;;;;;12.10;6.70;;;;;;;-1.11;100.00;96556.28;5022988;28;20564;-75
2022/04/11 01:53:16;;;;;;;11.50;6.67;;;;;;;-1.13;100.00;96546.97;5027812;28;20495;-75
2022/04/11 01:55:42;;;;;;;12.13;6.60;;;;;;;-1.15;100.00;96541.88;5010923;28;20467;-75
2022/04/11 01:58:09;;;;;;;10.57;7.00;;;;;;;-1.17;100.00;96540.28;5027956;28;20491;-75
2022/04/11 02:00:36;;;;;;;12.90;6.60;;;;;;;-1.12;100.00;96540.91;5007162;28;20487;-76
2022/04/11 02:03:04;;;;;;;9.90;6.13;;;;;;;-1.16;100.00;96544.56;5017953;28;20467;-75
2022/04/11 02:05:30;;;;;;;11.07;5.90;;;;;;;-1.14;100.00;96553.03;5030520;28;20772;-75
2022/04/11 02:07:57;;;;;;;10.77;5.90;;;;;;;-1.09;100.00;96548.47;5030267;28;20538;-76
2022/04/11 02:10:27;;;;;;;10.73;6.00;;;;;;;-1.10;100.00;96552.81;5020900;28;20022;-75
2022/04/11 02:12:54;;;;;;;11.30;6.93;;;;;;;-1.11;100.00;96558.03;5027966;28;20474;-76
2022/04/11 02:15:19;;;;;;;11.37;6.63;;;;;;;-1.14;100.00;96553.03;5035505;28;20471;-75
2022/04/11 02:17:50;;;;;;;10.97;5.90;;;;;;;-1.14;100.00;96556.47;5029716;28;21042;-75
2022/04/11 02:20:16;;;;;;;11.23;6.20;;;;;;;-1.13;100.00;96554.72;5030333;28;20033;-75
2022/04/11 02:22:47;;;;;;;11.57;5.97;;;;;;;-1.15;100.00;96557.38;5028335;28;20529;-75
2022/04/11 02:25:14;;;;;;;14.07;7.43;;;;;;;-1.12;100.00;96551.22;5029142;28;20467;-75
2022/04/11 02:27:42;;;;;;;14.53;7.70;;;;;;;-1.10;100.00;96547.66;5026591;28;20454;-75
2022/04/11 02:30:09;;;;;;;18.13;7.57;;;;;;;-1.06;100.00;96549.16;5005259;28;20483;-75
2022/04/11 02:32:35;;;;;;;14.70;7.57;;;;;;;-1.05;100.00;96544.81;5027799;28;21003;-76
2022/04/11 02:35:00;;;;;;;12.80;8.50;;;;;;;-0.98;100.00;96548.75;5009736;28;20451;-75
2022/04/11 02:37:26;;;;;;;12.00;6.93;;;;;;;-0.97;100.00;96542.69;5013946;28;20489;-75
2022/04/11 02:39:52;;;;;;;10.93;7.03;;;;;;;-0.96;100.00;96544.34;5012195;28;20036;-76
2022/04/11 02:42:27;;;;;;;12.87;7.17;;;;;;;-0.88;100.00;96542.16;5010365;28;20108;-75
2022/04/11 02:44:59;;;;;;;10.47;7.03;;;;;;;-0.86;100.00;96535.19;5012305;28;20472;-75
2022/04/11 02:47:25;;;;;;;13.87;8.43;;;;;;;-0.84;100.00;96535.97;5013621;28;20804;-76
2022/04/11 02:49:51;;;;;;;13.33;7.87;;;;;;;-0.81;100.00;96522.84;5025615;28;20471;-75
2022/04/11 02:52:37;;;;;;;12.90;6.87;;;;;;;-0.94;100.00;96529.59;5043099;28;20068;-75
2022/04/11 02:55:04;;;;;;;12.47;6.70;;;;;;;-0.94;100.00;96521.84;5029746;28;21018;-76
2022/04/11 02:57:30;;;;;;;10.70;6.70;;;;;;;-0.99;100.00;96521.28;5021958;28;21013;-75
2022/04/11 02:59:56;;;;;;;10.47;6.13;;;;;;;-0.98;100.00;96520.34;5027088;28;20530;-76
2022/04/11 03:02:22;;;;;;;10.27;6.23;;;;;;;-0.98;100.00;96522.94;5029314;28;20037;-76
2022/04/11 03:04:48;;;;;;;12.77;7.13;;;;;;;-1.00;100.00;96515.28;5017936;28;20584;-75
2022/04/11 03:07:18;;;;;;;14.07;6.87;;;;;;;-0.97;100.00;96509.94;5021162;28;20041;-75
2022/04/11 03:09:45;;;;;;;16.93;7.03;;;;;;;-0.90;100.00;96507.06;5028709;28;20471;-75
2022/04/11 03:12:12;;;;;;;20.30;8.17;;;;;;;-0.79;100.00;96512.47;5029680;28;20564;-75
2022/04/11 03:14:38;;;;;;;10.43;7.50;;;;;;;-0.79;100.00;96507.28;5012535;28;20460;-75
2022/04/11 03:17:05;;;;;;;12.07;7.30;;;;;;;-0.79;100.00;96492.63;5029855;28;20455;-76
2022/04/11 03:19:33;;;;;;;13.97;8.00;;;;;;;-0.75;100.00;96494.13;5030693;28;20567;-75
2022/04/11 03:22:00;;;;;;;11.63;8.53;;;;;;;-0.68;100.00;96493.78;5027245;28;21083;-76
2022/04/11 03:24:26;;;;;;;13.30;7.63;;;;;;;-0.63;100.00;96490.03;5023380;28;20920;-75
2022/04/11 03:26:52;;;;;;;12.43;8.43;;;;;;;-0.59;100.00;96485.53;5027639;28;20464;-75
2022/04/11 03:29:23;;;;;;;12.20;8.20;;;;;;;-0.56;100.00;96475.03;5015956;28;20467;-76
2022/04/11 03:31:50;;;;;;;11.00;6.67;;;;;;;-0.49;100.00;96478.94;5013013;28;20463;-75
2022/04/11 03:34:17;;;;;;;14.20;7.63;;;;;;;-0.47;100.00;96474.50;5023621;28;20490;-75
2022/04/11 03:36:43;;;;;;;11.93;7.00;;;;;;;-0.55;100.00;96468.94;5032372;28;20902;-76
2022/04/11 03:39:09;;;;;;;10.20;6.33;;;;;;;-0.61;100.00;96475.28;5024217;28;20136;-75
2022/04/11 03:41:38;;;;;;;11.23;6.43;;;;;;;-0.59;100.00;96475.22;5031516;28;20487;-77
2022/04/11 03:44:13;;;;;;;13.40;7.27;;;;;;;-0.60;100.00;96469.22;5030101;28;20996;-75
2022/04/11 03:46:40;;;;;;;9.77;6.67;;;;;;;-0.56;100.00;96459.53;5030939;28;20451;-76
2022/04/11 03:49:09;;;;;;;11.20;6.50;;;;;;;-0.61;100.00;96458.97;5030293;28;20498;-75
2022/04/11 03:51:34;;;;;;;11.27;6.53;;;;;;;-0.60;100.00;96458.88;5030814;28;21074;-75
2022/04/11 03:54:01;;;;;;;15.13;7.20;;;;;;;-0.56;100.00;96454.38;5013366;28;20213;-76
2022/04/11 03:56:27;;;;;;;12.80;6.87;;;;;;;-0.54;100.00;96458.56;5025038;28;20467;-76
2022/04/11 03:58:53;;;;;;;9.50;6.13;;;;;;;-0.56;100.00;96457.78;5024143;28;20471;-76
2022/04/11 04:01:22;;;;;;;10.87;6.37;;;;;;;-0.51;100.00;96457.53;5030730;28;20501;-75
2022/04/11 04:03:48;;;;;;;9.70;6.57;;;;;;;-0.49;100.00;96446.19;5028416;28;20467;-75
2022/04/11 04:06:14;;;;;;;11.23;6.20;;;;;;;-0.43;100.00;96445.03;5013712;28;20459;-76
2022/04/11 04:08:43;;;;;;;10.53;6.07;;;;;;;-0.42;100.00;96448.44;5026749;28;20379;-75
2022/04/11 04:11:18;;;;;;;14.03;6.07;;;;;;;-0.41;100.00;96450.91;5028168;28;20471;-76
2022/04/11 04:14:21;;;;;;;10.48;5.95;;;;;;;-0.36;100.00;96451.50;4960221;28;20462;-76
2022/04/11 04:16:51;;;;;;;9.70;6.07;;;;;;;-0.31;100.00;96443.47;4962998;28;20037;-75
2022/04/11 04:19:22;;;;;;;12.83;6.53;;;;;;;-0.32;100.00;96442.66;4976654;28;20463;-76
2022/04/11 04:21:50;;;;;;;10.90;5.97;;;;;;;-0.17;100.00;96437.50;5012946;28;20462;-76
2022/04/11 04:24:19;;;;;;;10.03;5.90;;;;;;;-0.21;100.00;96434.28;5008048;28;20463;-76
2022/04/11 04:26:45;;;;;;;11.60;6.63;;;;;;;-0.17;100.00;96435.75;5012826;28;20475;-76
2022/04/11 04:29:14;;;;;;;13.50;7.20;;;;;;;-0.16;100.00;96427.09;5026025;28;20467;-76
2022/04/11 04:31:44;;;;;;;13.43;8.07;;;;;;;-0.12;100.00;96427.75;5021106;28;20490;-76
2022/04/11 04:34:10;;;;;;;13.10;7.03;;;;;;;-0.12;100.00;96422.59;5003781;28;20480;-76
2022/04/11 04:36:37;;;;;;;13.50;7.03;;;;;;;-0.11;100.00;96421.66;5020513;28;20033;-75
2022/04/11 04:39:03;;;;;;;13.20;7.37;;;;;;;-0.13;100.00;96426.09;5025789;28;21130;-76
2022/04/11 04:41:31;;;;;;;16.00;8.03;;;;;;;-0.09;100.00;96427.59;5008332;28;20652;-75
2022/04/11 04:43:57;;;;;;;11.13;6.90;;;;;;;-0.04;100.00;96431.53;5027754;28;21226;-75
2022/04/11 04:46:23;;;;;;;13.93;8.13;;;;;;;-0.05;100.00;96423.91;5019526;28;20452;-76
2022/04/11 04:48:52;;;;;;;13.03;7.07;;;;;;;-0.03;100.00;96427.22;5020164;28;21014;-76
2022/04/11 04:51:20;;;;;;;10.47;6.70;;;;;;;-0.03;100.00;96425.47;5026472;28;20475;-76
2022/04/11 04:54:06;;;;;;;18.17;7.53;;;;;;;0.07;100.00;96433.53;5025621;28;20478;-76
2022/04/11 04:56:35;;;;;;;11.53;6.83;;;;;;;0.07;100.00;96423.19;5029271;28;20486;-76
2022/04/11 04:59:06;;;;;;;12.93;7.43;;;;;;;0.14;100.00;96424.47;5029653;28;20444;-75
2022/04/11 05:01:34;;;;;;;11.77;6.77;;;;;;;0.10;100.00;96422.16;5009680;28;20468;-75
2022/04/11 05:03:59;;;;;;;11.47;7.90;;;;;;;0.15;100.00;96426.13;5028255;28;20472;-75
2022/04/11 05:06:30;;;;;;;13.73;7.43;;;;;;;0.13;100.00;96427.97;5013691;28;20397;-76
2022/04/11 05:08:56;;;;;;;11.00;7.47;;;;;;;0.15;100.00;96422.72;5028955;28;20452;-75
2022/04/11 05:11:24;;;;;;;11.60;7.20;;;;;;;0.22;100.00;96431.78;5012027;28;20487;-75
2022/04/11 05:13:51;;;;;;;10.87;7.13;;;;;;;0.24;100.00;96432.53;5006391;28;20032;-75
2022/04/11 05:16:18;;;;;;;13.47;7.50;;;;;;;0.28;100.00;96430.59;5012924;28;20439;-76
2022/04/11 05:18:46;;;;;;;10.77;7.27;;;;;;;0.33;100.00;96425.97;5012719;28;20489;-76
2022/04/11 05:21:12;;;;;;;13.37;8.23;;;;;;;0.33;100.00;96431.97;5008543;28;20460;-76
2022/04/11 05:23:38;;;;;;;17.40;7.30;;;;;;;0.32;100.00;96427.72;5028466;28;20509;-75
2022/04/11 05:26:07;;;;;;;10.87;7.20;;;;;;;0.35;100.00;96432.72;5030585;28;20914;-76
2022/04/11 05:28:35;;;;;;;14.33;7.40;;;;;;;0.41;100.00;96431.53;5013534;28;20140;-76
2022/04/11 05:31:03;;;;;;;18.63;7.87;;;;;;;0.48;100.00;96432.81;5028692;28;20487;-75
2022/04/11 05:33:33;;;;;;;13.90;7.80;;;;;;;0.55;100.00;96420.34;5022509;28;20464;-76
2022/04/11 05:36:01;;;;;;;15.80;9.83;;;;;;;0.69;100.00;96426.31;5022291;28;20459;-76
2022/04/11 05:38:26;;;;;;;17.80;10.57;;;;;;;0.83;100.00;96427.22;5028704;28;20478;-76
2022/04/11 05:40:53;;;;;;;18.60;10.70;;;;;;;0.95;100.00;96423.91;5024974;28;20025;-76
2022/04/11 05:43:27;;;;;;;17.50;9.30;;;;;;;1.13;100.00;96419.31;5028279;28;20493;-76
2022/04/11 05:45:53;;;;;;;12.93;8.20;;;;;;;1.04;100.00;96417.28;5028538;28;20492;-77
2022/04/11 05:48:19;;;;;;;13.53;7.63;;;;;;;1.14;100.00;96421.81;5029094;28;20033;-76
2022/04/11 05:50:45;;;;;;;13.80;8.33;;;;;;;1.04;100.00;96423.31;5044502;28;20467;-76
2022/04/11 05:53:11;;;;;;;10.63;7.17;;;;;;;1.20;100.00;96417.16;5026331;28;20195;-76
2022/04/11 05:55:36;;;;;;;12.40;7.30;;;;;;;1.35;100.00;96421.38;5028553;28;20107;-76
2022/04/11 05:58:03;;;;;;;13.10;7.80;;;;;;;1.56;100.00;96417.41;5027861;28;20120;-77
2022/04/11 06:00:29;;;;;;;12.83;8.33;;;;;;;1.78;100.00;96413.41;5027586;28;20521;-76
2022/04/11 06:02:55;;;;;;;14.07;8.17;;;;;;;2.12;100.00;96414.59;5026736;28;20036;-76
2022/04/11 06:05:22;;;;;;;13.87;7.80;;;;;;;2.41;100.00;96415.19;5029873;28;20650;-76
2022/04/11 06:07:47;;;;;;;13.10;8.00;;;;;;;2.79;100.00;96412.56;5028040;28;21049;-76
2022/04/11 06:10:13;;;;;;;15.27;8.13;;;;;;;2.66;100.00;96418.72;5023884;28;20570;-75
2022/04/11 06:12:41;;;;;;;11.57;7.57;;;;;;;2.80;100.00;96419.44;5024506;28;20043;-76
2022/04/11 06:15:07;;;;;;;10.17;6.63;;;;;;;2.94;100.00;96418.44;5012186;28;20850;-76
2022/04/11 06:17:33;;;;;;;10.77;6.73;;;;;;;3.18;100.00;96415.06;5014468;28;20043;-76
2022/04/11 06:20:00;;;;;;;11.93;6.97;;;;;;;3.22;100.00;96416.50;5011495;28;20820;-76
2022/04/11 06:22:27;;;;;;;10.33;7.10;;;;;;;3.47;100.00;96411.22;5009949;28;20114;-77
2022/04/11 06:25:00;;;;;;;10.43;6.93;;;;;;;3.54;100.00;96399.41;5009729;28;20060;-77
2022/04/11 06:27:27;;;;;;;12.50;6.77;;;;;;;3.82;100.00;96405.19;5029936;28;20059;-76
2022/04/11 06:29:56;;;;;;;11.90;7.60;;;;;;;3.46;100.00;96414.75;5028003;28;20033;-76
2022/04/11 06:32:27;;;;;;;10.40;6.97;;;;;;;3.62;100.00;96404.06;5027764;28;20128;-77
2022/04/11 06:34:54;;;;;;;10.87;7.10;;;;;;;4.31;100.00;96400.69;5031549;28;20033;-77
2022/04/11 06:37:21;;;;;;;9.77;6.30;;;;;;;5.10;100.00;96402.34;5016748;28;20559;-76
2022/04/11 06:39:47;;;;;;;10.07;6.47;;;;;;;5.84;96.10;96393.81;5031999;28;20033;-77
2022/04/11 06:42:13;;;;;;;11.00;6.73;;;;;;;5.93;91.74;96397.44;5048770;28;20048;-76
2022/04/11 06:44:41;;;;;;;12.87;7.17;;;;;;;5.90;90.35;96398.50;5025785;28;20036;-76
2022/04/11 06:47:12;;;;;;;12.73;6.87;;;;;;;6.44;91.17;96392.28;5028540;28;20033;-76
2022/04/11 06:49:39;;;;;;;10.97;6.23;;;;;;;7.43;82.15;96392.47;5031418;28;20036;-77
2022/04/11 06:52:06;;;;;;;9.93;5.40;;;;;;;7.25;79.37;96392.31;5022196;28;20036;-74
2022/04/11 06:54:32;;;;;;;12.77;6.20;;;;;;;6.73;83.21;96402.03;5010998;28;20047;-76
2022/04/11 06:56:58;;;;;;;8.67;5.23;;;;;;;6.73;82.67;96405.47;5049332;28;20036;-76
2022/04/11 06:59:24;;;;;;;12.13;5.70;;;;;;;7.00;79.49;96410.13;5031655;28;20024;-78
2022/04/11 07:01:53;;;;;;;10.60;5.00;;;;;;;7.72;74.71;96406.41;5030145;28;20083;-77
2022/04/11 07:04:20;;;;;;;9.27;5.53;;;;;;;7.51;73.30;96408.28;5017605;28;20068;-77
2022/04/11 07:06:46;;;;;;;8.17;4.13;;;;;;;7.76;71.26;96417.44;5030726;28;20036;-77
2022/04/11 07:09:12;;;;;;;7.30;4.63;;;;;;;6.95;72.50;96419.34;5024953;28;20045;-77
2022/04/11 07:11:37;;;;;;;8.13;4.57;;;;;;;7.20;72.38;96421.47;5038460;28;20277;-75
2022/04/11 07:14:05;;;;;;;8.03;4.37;;;;;;;8.02;64.94;96408.06;5029816;28;20037;-76
2022/04/11 07:16:31;;;;;;;6.53;3.87;;;;;;;7.99;65.83;96407.50;5031425;28;20478;-76
2022/04/11 07:18:57;;;;;;;8.57;4.33;;;;;;;7.61;65.67;96405.69;5043490;28;20095;-77
2022/04/11 07:21:22;;;;;;;11.53;4.30;;;;;;;7.95;65.32;96406.13;5042281;28;20083;-77
2022/04/11 07:23:48;;;;;;;7.73;4.20;;;;;;;8.07;62.34;96410.25;5024493;28;20033;-76
2022/04/11 07:26:14;;;;;;;8.37;4.27;;;;;;;8.08;61.63;96414.53;5030382;28;20037;-76
2022/04/11 07:28:40;;;;;;;8.20;3.80;;;;;;;7.73;63.10;96415.06;5027230;28;20029;-77
2022/04/11 07:31:06;;;;;;;9.83;4.63;;;;;;;7.02;65.63;96423.06;5027495;28;20032;-76
2022/04/11 07:33:32;;;;;;;11.37;4.00;;;;;;;7.58;62.46;96417.28;5026450;28;20047;-76
2022/04/11 07:35:58;;;;;;;8.63;4.60;;;;;;;8.49;60.19;96402.09;5045699;28;20037;-76
2022/04/11 07:38:23;;;;;;;9.63;4.20;;;;;;;7.72;61.68;96406.41;5047832;28;20040;-76
2022/04/11 07:40:49;;;;;;;7.47;3.93;;;;;;;8.12;59.36;96402.81;5007351;28;20444;-77
2022/04/11 07:43:15;;;;;;;11.53;5.03;;;;;;;8.63;56.97;96401.63;5030273;28;20031;-77
2022/04/11 07:45:42;;;;;;;11.20;4.57;;;;;;;8.56;56.79;96395.28;5026208;28;20047;-78
2022/04/11 07:48:09;;;;;;;9.43;3.50;;;;;;;8.30;56.70;96404.72;5039744;28;20038;-77
2022/04/11 07:50:35;;;;;;;7.03;3.20;;;;;;;9.17;53.72;96397.38;5024090;28;20033;-77
2022/04/11 07:53:01;;;;;;;6.37;3.17;;;;;;;8.69;55.47;96406.28;5028427;28;20036;-77
2022/04/11 07:55:27;;;;;;;7.17;3.40;;;;;;;9.18;54.52;96406.88;5026921;28;20991;-77
2022/04/11 07:57:53;;;;;;;7.07;3.13;;;;;;;9.10;52.21;96398.94;5047639;28;20059;-77
2022/04/11 08:00:20;;;;;;;5.93;2.90;;;;;;;8.63;54.88;96395.56;5047999;28;20025;-76
2022/04/11 08:02:51;;;;;;;5.83;2.97;;;;;;;8.76;55.20;96405.72;5029725;28;20033;-77
2022/04/11 08:05:19;;;;;;;5.73;3.00;;;;;;;8.48;55.55;96397.78;5027627;28;20063;-76
2022/04/11 08:07:46;;;;;;;6.27;2.90;;;;;;;8.60;54.94;96395.84;5024215;28;20029;-77
2022/04/11 08:10:13;;;;;;;6.90;3.50;;;;;;;8.68;54.96;96404.63;5026016;28;20128;-77
2022/04/11 08:13:00;;;;;;;5.47;2.67;;;;;;;8.62;54.38;96402.59;5044240;28;20540;-77
2022/04/11 08:15:28;;;;;;;6.83;3.43;;;;;;;9.67;52.52;96388.22;5047449;28;20479;-77
2022/04/11 08:17:55;;;;;;;7.73;3.87;;;;;;;8.72;55.11;96400.75;5029523;28;20039;-77
2022/04/11 08:20:21;;;;;;;6.20;3.20;;;;;;;9.01;54.79;96389.31;5029426;28;20033;-78
2022/04/11 08:22:47;;;;;;;8.37;3.67;;;;;;;9.27;53.51;96391.25;5026690;28;20036;-76
2022/04/11 08:25:16;;;;;;;8.20;3.87;;;;;;;10.12;52.12;96390.72;5010099;28;20041;-77
2022/04/11 08:27:43;;;;;;;6.83;3.40;;;;;;;10.46;52.62;96382.16;5044455;28;20033;-78
2022/04/11 08:30:10;;;;;;;8.30;3.50;;;;;;;9.77;52.05;96385.53;5014382;28;20055;-77
2022/04/11 08:32:48;;;;;;;8.87;3.00;;;;;;;9.94;52.61;96383.88;5046895;28;20099;-77
2022/04/11 08:35:14;;;;;;;9.40;3.97;;;;;;;9.50;53.21;96384.63;5028126;28;20585;-77
2022/04/11 08:37:41;;;;;;;6.17;3.30;;;;;;;10.77;51.08;96376.41;5028294;28;20036;-77
2022/04/11 08:40:10;;;;;;;7.63;3.30;;;;;;;10.77;51.42;96379.03;5046502;28;20112;-77
2022/04/11 08:42:40;;;;;;;7.70;4.07;;;;;;;11.10;49.44;96377.38;5043042;28;20483;-77
2022/04/11 08:45:07;;;;;;;7.43;4.03;;;;;;;10.55;51.20;96385.66;5044169;28;20037;-77
2022/04/11 08:47:33;;;;;;;6.67;3.70;;;;;;;10.97;50.94;96375.19;5015287;28;20099;-77
2022/04/11 08:50:00;;;;;;;9.47;3.90;;;;;;;10.32;50.71;96374.81;5045214;28;20116;-77
2022/04/11 08:52:27;;;;;;;7.20;3.60;;;;;;;10.65;51.39;96388.16;5027291;28;20040;-76
2022/04/11 08:54:54;;;;;;;6.80;3.37;;;;;;;11.74;48.72;96385.63;5025637;28;20150;-77
2022/04/11 08:57:22;;;;;;;7.37;3.13;;;;;;;12.27;45.05;96366.72;5039815;28;20395;-77
2022/04/11 08:59:47;;;;;;;7.17;3.53;;;;;;;12.39;47.00;96371.63;5029325;28;20024;-77
2022/04/11 09:02:13;;;;;;;7.20;3.63;;;;;;;11.55;47.26;96381.44;5009210;28;20044;-77
2022/04/11 09:04:55;;;;;;;7.20;4.03;;;;;;;11.56;47.46;96380.47;5009736;28;20036;-77
2022/04/11 09:07:21;;;;;;;6.90;3.10;;;;;;;13.33;44.53;96376.13;5023807;28;20467;-78
2022/04/11 09:09:47;;;;;;;6.30;2.90;;;;;;;12.76;43.42;96383.44;4994556;28;20048;-78
2022/04/11 09:12:17;;;;;;;7.27;3.60;;;;;;;12.03;44.57;96377.25;5007456;28;20042;-77
2022/04/11 09:14:54;;;;;;;6.90;2.83;;;;;;;11.99;46.47;96366.22;5016643;28;20042;-78
2022/04/11 09:17:24;;;;;;;4.57;2.70;;;;;;;11.44;45.69;96377.31;5018247;28;20065;-78
2022/04/11 09:20:17;;;;;;;4.70;2.40;;;;;;;12.00;43.51;96367.88;5032537;28;20033;-77
2022/04/11 09:22:43;;;;;;;8.65;2.65;;;;;;;11.99;44.05;96366.22;5020030;28;20035;-77
2022/04/11 09:25:17;;;;;;;6.80;2.70;;;;;;;12.54;43.53;96363.84;5018045;28;20036;-77
2022/04/11 09:27:43;;;;;;;6.23;2.70;;;;;;;12.71;43.25;96368.94;5027757;28;20108;-77
2022/04/11 09:30:24;;;;;;;7.17;2.97;;;;;;;13.44;41.01;96362.53;5005225;28;20032;-78
2022/04/11 09:32:59;;;;;;;5.17;2.90;;;;;;;11.22;44.07;96383.16;5021012;28;20037;-77
2022/04/11 09:35:28;;;;;;;5.53;2.50;;;;;;;12.22;43.83;96366.38;5005894;28;20478;-78
2022/04/11 09:38:19;;;;;;;4.87;2.37;;;;;;;12.21;41.85;96354.19;4999311;28;20078;-77
2022/04/11 09:40:48;;;;;;;6.13;2.60;;;;;;;11.78;42.90;96363.22;5014163;28;20044;-78
2022/04/11 09:43:16;;;;;;;5.30;2.10;;;;;;;11.98;42.84;96354.03;4968913;28;20121;-77
2022/04/11 09:45:46;;;;;;;6.80;2.80;;;;;;;12.27;41.95;96348.25;4985397;28;20032;-79
2022/04/11 09:48:37;;;;;;;4.73;2.30;;;;;;;11.42;43.08;96357.38;4990101;28;20055;-79
2022/04/11 09:51:16;;;;;;;6.53;2.40;;;;;;;11.88;42.46;96350.72;4984910;28;20040;-77
2022/04/11 09:53:43;;;;;;;5.23;2.57;;;;;;;12.46;41.05;96349.69;4975267;28;20037;-78
2022/04/11 09:56:11;;;;;;;5.60;2.37;;;;;;;13.40;42.07;96340.09;4988737;28;23152;-78
2022/04/11 09:58:38;;;;;;;4.60;2.40;;;;;;;12.90;41.03;96343.94;5013810;28;20120;-79
2022/04/11 10:01:05;;;;;;;6.53;2.47;;;;;;;12.67;41.01;96337.75;5017226;28;20025;-78
2022/04/11 10:03:32;;;;;;;5.57;2.43;;;;;;;13.82;40.57;96335.41;5002791;28;20032;-79
2022/04/11 10:05:58;;;;;;;7.33;2.93;;;;;;;12.97;40.77;96336.16;4990571;28;20390;-79
2022/04/11 10:08:26;;;;;;;5.20;2.53;;;;;;;13.25;40.65;96328.66;5011670;28;20041;-78
2022/04/11 10:10:55;;;;;;;4.27;2.17;;;;;;;13.70;39.62;96327.03;5026375;28;20033;-79
2022/04/11 10:13:22;;;;;;;5.97;2.47;;;;;;;14.82;39.05;96322.72;5001011;28;20033;-79
2022/04/11 10:15:49;;;;;;;6.33;2.63;;;;;;;15.37;38.07;96315.22;5034668;28;21322;-79
2022/04/11 10:18:18;;;;;;;5.40;2.47;;;;;;;12.74;41.10;96330.81;5005761;28;20040;-80
2022/04/11 10:20:49;;;;;;;5.83;2.77;;;;;;;14.10;39.89;96309.22;5030569;28;20036;-78
2022/04/11 10:23:45;;;;;;;5.27;2.53;;;;;;;12.83;40.59;96321.88;5036647;28;20472;-79
2022/04/11 10:26:17;;;;;;;6.47;2.50;;;;;;;13.37;39.79;96314.03;5016813;28;20041;-77
2022/04/11 10:28:47;;;;;;;4.70;2.50;;;;;;;12.65;39.49;96323.94;5022666;28;20045;-78
2022/04/11 10:31:15;;;;;;;5.73;2.47;;;;;;;13.97;38.35;96312.44;5038416;28;20037;-78
2022/04/11 10:33:49;;;;;;;3.80;2.33;;;;;;;13.88;38.88;96310.88;5021191;28;20025;-79
2022/04/11 10:36:35;;;;;;;6.13;2.40;;;;;;;12.92;39.83;96309.47;5031175;28;21300;-80
2022/04/11 10:39:13;;;;;;;5.83;2.67;;;;;;;14.32;38.07;96308.34;5004381;28;20033;-80
2022/04/11 10:41:57;;;;;;;6.73;2.67;;;;;;;15.50;36.05;96298.66;4989001;28;20029;-78
2022/04/11 10:44:33;;;;;;;5.97;2.83;;;;;;;15.98;36.05;96293.59;4996957;28;20064;-78
2022/04/11 10:47:17;;;;;;;5.30;2.55;;;;;;;16.03;36.55;96291.22;4975676;28;20038;-79
2022/04/11 10:49:48;;;;;;;6.83;3.33;;;;;;;14.26;38.43;96303.78;4992603;28;20040;-78
2022/04/11 10:52:35;;;;;;;7.07;2.90;;;;;;;15.28;35.52;96305.75;5006768;28;20037;-78
2022/04/11 10:55:11;;;;;;;6.00;2.85;;;;;;;14.38;37.16;96307.63;4987083;28;20501;-80
2022/04/11 10:57:38;;;;;;;6.90;3.30;;;;;;;13.39;40.22;96292.75;4976194;28;20128;-79
2022/04/11 11:00:14;;;;;;;6.27;2.63;;;;;;;14.37;37.35;96278.69;4992736;28;20029;-78
2022/04/11 11:02:49;;;;;;;7.50;3.07;;;;;;;15.52;36.49;96270.09;4989917;28;20033;-78
2022/04/11 11:05:24;;;;;;;4.50;2.53;;;;;;;14.75;37.32;96279.44;5012317;28;20116;-81
2022/04/11 11:08:10;;;;;;;6.33;2.63;;;;;;;14.32;38.16;96273.94;5010288;28;20479;-78
2022/04/11 11:10:40;;;;;;;4.67;2.70;;;;;;;13.86;39.29;96281.97;5011788;28;20506;-80
2022/04/11 11:13:30;;;;;;;5.77;2.70;;;;;;;14.33;36.77;96280.88;5028488;28;20057;-80
2022/04/11 11:16:20;;;;;;;8.97;3.27;;;;;;;13.65;38.88;96271.28;5033741;28;20029;-77
2022/04/11 11:18:52;;;;;;;8.60;3.93;;;;;;;13.23;39.83;96275.16;5040327;28;20116;-79
2022/04/11 11:21:21;;;;;;;7.73;3.70;;;;;;;13.02;41.36;96272.31;5024472;28;20037;-78
2022/04/11 11:24:07;;;;;;;5.43;3.23;;;;;;;15.21;37.53;96255.31;5008133;28;20025;-80
2022/04/11 11:26:53;;;;;;;6.00;3.20;;;;;;;15.26;37.76;96246.84;5041723;28;20061;-82
2022/04/11 11:29:33;;;;;;;5.67;2.97;;;;;;;14.99;36.96;96261.59;5043968;28;20063;-81
2022/04/11 11:32:04;;;;;;;6.07;2.80;;;;;;;14.79;36.19;96253.44;5041612;28;20041;-81
2022/04/11 11:34:33;;;;;;;7.73;3.03;;;;;;;14.53;36.84;96248.63;5021782;28;20037;-81